Hauptseite
METAR-TAF:

METAR-TAF

Flughäfen :

Militärflugplatz Cervia

Cervia, Italien

Breite: 44-13N, Länge: 012-18E, Höhe: 6 m

Beobachtung

Neuester Wetterbericht von vor 46 Minuten, um 09:55 UTC
Wind 4 kt aus Nord/Nordwest
Temperatur 28°C
Luftfeuchtigkeit 55%
Luftdruck 1014 hPa
Sichtweite 10 km oder mehr
keine Wolken unter 1500 m und keine Kumulonimbus oder Gewitterwolken

METAR: LIPC 180955Z 33004KT CAVOK 28/18 Q1014 RMK SKC VIS MIN 9999 WIND THR11 31005KT WIND THR29 /////KT BLU

Zeit: 12:41 (10:41 UTC)

Prognose

Neuester Wetterbericht von vor 2 Stunden und 41 Minuten, um 08:00 UTC
Gültige Prognose vom 18 um 09 UTC bis 18 um 18 UTC
Wind 6 kt aus Nordwest
Sichtweite 10 km oder mehr
keine Wolken unter 1500 m und keine Kumulonimbus oder Gewitterwolken

TAF: LIPC 180800Z 1809/1818 32006KT CAVOK

Wetterbeobachtungen und Prognosen von mehr als 4000 Flughäfen (METAR und TAF Bericht).

Die verfügbaren Stationen werden durch gelbe und rote Markierungen auf der Karte dargestellt.

Führen Sie die Maus auf sie, um den Namen der Station zu sehen.

Darauf klicken, um die Beobachtung von Wetterbeobachtungen und Prognosen zu sehen.

Um die Karte zu ändern : klicken Sie auf den grünen Tasten mit einem schwarzen Kreuz Zum Vergrößern, auf den grünen Button mit einem Gedankenstrich zu verkleinern, oder auf die grünen Pfeile für benachbarte Karten.


METAR-TAF: